Decoded Metar for KEVV (EVANSVILLE in IN, USA) (IATA:EVV) | Meteo·Mobile Aviation Weather
aviador You're here:

KEVV Decoded Metar

EVANSVILLE in IN, USA
Report Time2019-04-24 13:54:00
UTC Time2019-04-24 14:57:03
Flight Rules vfr VFR
Wind130° at 05 kt
W.Decomp.*RWY 09: 3.7 kt HW 3.4 kt RCW
RWY 18: 3.4 kt HW 3.7 kt LCW
RWY 22: 0.3 kt HW 5 kt LCW
Visibility9999 m
Phenomena:N/A
Clouds:Few 120 Hf
Expected CloudBase > 1,200 ft AGL from Temp-Dew spread
CeilingNone
Temp17°C (ISA +3)
Dew Point14°C (83% RH)
AAT16.5°C
QNH1015 hPa
Density Alt856 ft
Elevation384 ft
Report Wrong Elevation
Raw Report
KEVV 241354Z 13005KT 10SM FEW120 17/14 A2997 RMK AO2 SLP146
T01670139=

Extra information for KEVV:More info

Metar Taf Metar & Taf Last 4 Metars F.Rules Stats Wind Profile Meteogram Temp Stats Airport Information Weather charts Add Link Nearby VenuesMetar ALERT Operation Metar Decoded Social comments

AIRNAV info for KEVV